M I D A S
Marine Information and Data Acquisition System
Tripno 383 of the Zeeleeuw from 2002-07-01 08:04:20 to 2002-07-01 15:46:00
Back to CruiseResearch ActivitiesStationsMapUnderway DataData graphs

EquipmentUnitsComment
TimeDGPSUTC
LatitudeDGPSDM.mWGS84
LongitudeDGPSDM.mWGS84
HeadingGyrodeg 
SOGDGPSknotsSpeed over ground
COGDGPSdegCourse over ground
DepthEcho soundermeters200 kHz
Missing or incorrect values are displayed as -999
Navigation data collected by the RV Zeeleeuw from 2002-07-01 08:04:20 to 2002-07-01 15:46:00
Time Latitude Longitude Heading SOG COG Depth
2002-07-01 08:05:21 51°13.718 2°55.745 320.2 5.7 314.6 12
2002-07-01 08:06:21 51°13.796 2°55.661 336.8 5.7 332.5 10.9
2002-07-01 08:07:21 51°13.883 2°55.597 337.8 5.9 335.1 10.1
2002-07-01 08:08:21 51°13.975 2°55.529 338.8 6.4 335.3 10.6
2002-07-01 08:09:22 51°14.078 2°55.452 337.5 6.9 334.5 10.9
2002-07-01 08:10:21 51°14.178 2°55.363 330.7 7.1 328.1 11
2002-07-01 08:11:21 51°14.27 2°55.245 318.7 7 316.2 10.6
2002-07-01 08:12:21 51°14.347 2°55.106 312.8 7 309.8 10.5
2002-07-01 08:13:21 51°14.418 2°54.96 306.8 7.3 304.5 10.5
2002-07-01 08:14:21 51°14.5 2°54.755 308.3 10 303.7 10.5
2002-07-01 08:15:21 51°14.627 2°54.517 315.3 12.5 311.5 10.3
2002-07-01 08:16:21 51°14.747 2°54.242 301.5 12.7 299.6 10.4
2002-07-01 08:17:21 51°14.829 2°53.935 294.8 12.4 292.4 10.1
2002-07-01 08:18:22 51°14.909 2°53.623 294.7 12.6 291.9 10.1
2002-07-01 08:19:21 51°14.99 2°53.312 295.7 13.1 292.9 10.3
2002-07-01 08:20:21 51°15.074 2°52.989 296.7 13.2 293.8 10.5
2002-07-01 08:21:21 51°15.161 2°52.667 296.7 13.1 293.2 11.1
2002-07-01 08:22:21 51°15.247 2°52.342 294.8 13.3 291.6 11.7
2002-07-01 08:23:21 51°15.327 2°52.015 294.8 13.2 291.5 12.3
2002-07-01 08:24:21 51°15.35 2°51.679 261.2 12.8 260.2 12.6
2002-07-01 08:25:21 51°15.304 2°51.347 261.3 12.8 259.1 12.8
2002-07-01 08:26:21 51°15.278 2°51.005 265.2 13 263.2 12.8
2002-07-01 08:27:21 51°15.25 2°50.666 261.5 13 259.8 13
2002-07-01 08:28:22 51°15.213 2°50.327 261 12.8 260 13
2002-07-01 08:29:21 51°15.173 2°50 259.8 13 258.3 13.1
2002-07-01 08:30:21 51°15.13 2°49.664 260.7 13 258.7 13.1
2002-07-01 08:31:22 51°15.087 2°49.32 260.7 13.1 258.8 13
2002-07-01 08:32:21 51°15.045 2°48.987 261.2 13 259.3 12.9
2002-07-01 08:33:21 51°15.003 2°48.65 260 12.9 258.7 12.7
2002-07-01 08:34:21 51°14.962 2°48.314 259.8 12.9 258.5 12.9
2002-07-01 08:35:21 51°14.931 2°47.974 266.7 13 264.9 13
2002-07-01 08:36:21 51°14.907 2°47.632 265.3 13 262.7 13.1
2002-07-01 08:37:21 51°14.88 2°47.292 264.5 12.8 262.2 12.5
2002-07-01 08:38:21 51°14.852 2°46.951 264 13 261.7 11
2002-07-01 08:39:21 51°14.817 2°46.611 260.8 13 258.9 9.3
2002-07-01 08:40:21 51°14.775 2°46.273 260.3 12.9 258.7 9
2002-07-01 08:41:21 51°14.736 2°45.932 261.5 13.1 260.5 9
2002-07-01 08:42:22 51°14.687 2°45.587 257.8 13.1 256.2 9.9
2002-07-01 08:43:21 51°14.636 2°45.253 257.5 13.2 256 11.2
2002-07-01 08:44:21 51°14.588 2°44.914 259.7 13.1 258.1 12.3
2002-07-01 08:45:22 51°14.542 2°44.565 260.3 13.2 258.1 13.7
2002-07-01 08:46:21 51°14.497 2°44.229 260 13.1 258.2 14.5
2002-07-01 08:47:21 51°14.452 2°43.89 259.7 13.1 257.8 15.4
2002-07-01 08:48:22 51°14.406 2°43.546 259.5 13.1 257.7 16.1
2002-07-01 08:49:22 51°14.361 2°43.206 259.7 13.2 258.3 16.3
2002-07-01 08:50:21 51°14.317 2°42.872 260.3 13.1 258 16.5
2002-07-01 08:51:21 51°14.271 2°42.535 260 13 257.7 16.8
2002-07-01 08:52:22 51°14.226 2°42.188 260.5 13.1 258.8 16.9
2002-07-01 08:53:21 51°14.182 2°41.861 259.8 11.8 258.5 16.9
2002-07-01 08:54:21 51°14.153 2°41.655 258.5 6.3 259 16.7
2002-07-01 08:55:21 51°14.136 2°41.521 251.5 4.7 255 16.4
2002-07-01 08:56:21 51°14.119 2°41.416 252 3.7 257.4 16.2
2002-07-01 08:57:21 51°14.112 2°41.34 253.8 2.5 264.9 16
2002-07-01 08:58:21 51°14.112 2°41.285 254.2 1.8 271.7 15.4
2002-07-01 08:59:21 51°14.115 2°41.239 253.5 1.7 275.7 15.7
2002-07-01 09:00:22 51°14.115 2°41.195 241 1.7 261.8 15.2
2002-07-01 09:01:21 51°14.106 2°41.141 238.7 2.6 251.6 15.2
2002-07-01 09:02:21 51°14.1 2°41.075 257.8 2.2 272.6 15
2002-07-01 09:03:22 51°14.107 2°41.03 256.8 1.4 289.1 14.6
2002-07-01 09:04:21 51°14.118 2°41.007 262.3 1.1 323.3 14.4
2002-07-01 09:05:21 51°14.133 2°40.991 273.5 1.2 331.9 14.3
2002-07-01 09:06:21 51°14.156 2°40.965 302.3 3.4 308.9 14.5
2002-07-01 09:07:22 51°14.239 2°40.974 58.7 6.6 49 14.3
2002-07-01 09:08:21 51°14.221 2°41.105 143.7 5.7 136 13.7
2002-07-01 09:09:21 51°14.125 2°41.113 182.3 5.7 181.8 15.1
2002-07-01 09:10:21 51°14.084 2°41.116 181.5 0.6 160.9 15.3
2002-07-01 09:11:21 51°14.08 2°41.125 170.2 0.4 107 15.4
2002-07-01 09:12:21 51°14.083 2°41.137 151.5 0.5 53.4 15.4
2002-07-01 09:13:21 51°14.092 2°41.149 131.7 0.8 37.5 15.3
2002-07-01 09:14:22 51°14.102 2°41.161 125.5 0.7 37.5 15.1
2002-07-01 09:15:21 51°14.113 2°41.168 125 0.8 11.9 15
2002-07-01 09:16:21 51°14.128 2°41.168 121.7 0.9 359.2 14.9
2002-07-01 09:17:21 51°14.144 2°41.165 113.7 1 352.5 14.7
2002-07-01 09:18:22 51°14.152 2°41.18 127.7 2.1 112.2 14.7
2002-07-01 09:19:21 51°14.084 2°41.181 222.7 5.5 218.3 15.3
2002-07-01 09:20:21 51°14.063 2°41.099 249.2 2.1 261.4 15
2002-07-01 09:21:22 51°14.066 2°41.059 254.8 1.2 287.5 15
2002-07-01 09:22:22 51°14.077 2°41.034 261.2 1.1 312.1 14.7
2002-07-01 09:23:22 51°14.091 2°41.016 272.8 1 327.4 14.7
2002-07-01 09:24:22 51°14.106 2°41.008 294.2 0.8 0.8 14.3
2002-07-01 09:25:21 51°14.119 2°41.002 303.8 0.9 339.7 14.2
2002-07-01 09:26:22 51°14.132 2°40.997 306 0.7 359.6 14.1
2002-07-01 09:27:22 51°14.135 2°41.012 323.2 0.5 90.3 14.2
2002-07-01 09:28:22 51°14.135 2°41.022 339.5 0.3 63.6 13.9
2002-07-01 09:29:22 51°14.142 2°41.027 342.7 0.5 13 14.1
2002-07-01 09:30:21 51°14.148 2°41.029 335.7 0.3 23.8 14.1
2002-07-01 09:31:21 51°14.151 2°41.037 334.3 0.4 76.2 14.4
2002-07-01 09:32:22 51°14.152 2°41.048 342.3 0.4 97.1 14.4
2002-07-01 09:33:21 51°14.152 2°41.054 350.5 0.2 100.4 14.1
2002-07-01 09:34:21 51°14.151 2°41.058 2 0.2 91.5 13.9
2002-07-01 09:35:21 51°14.151 2°41.059 2.2 0.1 91.1 14
2002-07-01 09:36:22 51°14.151 2°41.062 1.3 0.1 123.4 14.1
2002-07-01 09:37:22 51°14.148 2°41.066 5.8 0.2 138.6 14.1
2002-07-01 09:38:21 51°14.147 2°41.067 11.2 0.1 109.9 14.2
2002-07-01 09:39:22 51°14.147 2°41.068 11   18.9 14.1
2002-07-01 09:40:22 51°14.148 2°41.067 4.7   195.9 14.2
2002-07-01 09:41:21 51°14.146 2°41.07 4.5 0.2 144.3 14.2
2002-07-01 09:42:22 51°14.144 2°41.07 10.2 0.1 185.2 14.4
2002-07-01 09:43:23 51°14.142 2°41.069 20.5 0.1 224.9 14.4
2002-07-01 09:44:21 51°14.144 2°41.066 26.5 0.2 304.3 14.5
2002-07-01 09:45:22 51°14.148 2°41.063 24.8 0.4 328.4 14.1
2002-07-01 09:46:23 51°14.152 2°41.058 14 0.2 340.4 13.7
2002-07-01 09:47:22 51°14.149 2°41.055 8.3 0.6 198.7 14.3
2002-07-01 09:48:22 51°14.144 2°41.049 27.2 0.2 333.2 -999
2002-07-01 09:49:21 51°14.159 2°41.057 52.8 1.4 27.2 14.3
2002-07-01 09:50:23 51°14.173 2°41.086 93.8 1.2 68.6 14.1
2002-07-01 09:51:22 51°14.175 2°41.112 118.8 0.9 90 14.1
2002-07-01 09:52:22 51°14.17 2°41.133 138.5 1.1 119.1 14
2002-07-01 09:53:23 51°14.151 2°41.158 163 1.9 153.9 14.4
2002-07-01 09:54:23 51°14.114 2°41.153 201.3 2.5 203.2 14.9
2002-07-01 09:55:23 51°14.09 2°41.124 217.8 1.4 226.4 14.8
2002-07-01 09:56:22 51°14.085 2°41.101 233.8 0.9 276.6 15
2002-07-01 09:57:22 51°14.095 2°41.08 266.3 1.1 316 14.6
2002-07-01 09:58:22 51°14.112 2°41.061 301.2 1.4 319.8 14.3
2002-07-01 09:59:21 51°14.13 2°41.04 312 1.5 320 13.9
2002-07-01 10:00:22 51°14.149 2°41.01 299.5 2.4 302.1 14.1
2002-07-01 10:01:22 51°14.106 2°40.851 223.3 9.2 223.2 14
2002-07-01 10:02:22 51°13.943 2°40.642 214.5 13.6 214.1 13.8
2002-07-01 10:03:22 51°13.767 2°40.402 216.8 13.9 217.1 14.3
2002-07-01 10:04:22 51°13.581 2°40.175 218 14.1 217.7 14.5
2002-07-01 10:05:21 51°13.4 2°39.947 218.3 14 218.6 12.9
2002-07-01 10:06:21 51°13.215 2°39.714 219 14.1 218.5 14.5
2002-07-01 10:07:22 51°13.027 2°39.473 220.7 14.3 219.5 13.4
2002-07-01 10:08:21 51°12.852 2°39.232 221.3 14 221 12.7
2002-07-01 10:09:22 51°12.672 2°38.985 222 14.1 221.2 12.5
2002-07-01 10:10:21 51°12.496 2°38.745 221.8 14.2 220.7 12.6
2002-07-01 10:11:22 51°12.314 2°38.494 222 14.2 220.6 12.7
2002-07-01 10:12:22 51°12.135 2°38.249 221.8 14.1 220.9 12.8
2002-07-01 10:13:22 51°11.955 2°38.001 223.5 14.3 222 12.9
2002-07-01 10:14:21 51°11.783 2°37.751 224.2 14.2 222.7 13
2002-07-01 10:15:22 51°11.604 2°37.491 224.2 14.3 222.4 12.9
2002-07-01 10:16:22 51°11.429 2°37.236 224.2 14.2 222.3 12.5
2002-07-01 10:17:21 51°11.257 2°36.989 224.5 14.1 222.2 12.2
2002-07-01 10:18:22 51°11.079 2°36.733 224 14.2 222.4 11.5
2002-07-01 10:19:22 51°10.905 2°36.48 223.7 14.2 222 10.7
2002-07-01 10:20:22 51°10.731 2°36.227 224 14.2 222.2 10.4
2002-07-01 10:21:22 51°10.558 2°35.973 226.3 14.1 224.4 9.8
2002-07-01 10:22:22 51°10.391 2°35.703 227.3 14.3 225.9 9.9
2002-07-01 10:23:22 51°10.226 2°35.43 229.2 14.4 227.6 10.1
2002-07-01 10:24:22 51°10.08 2°35.132 236.3 14.4 234.4 9.8
2002-07-01 10:25:22 51°9.941 2°34.825 236 14.4 234 9.8
2002-07-01 10:26:22 51°9.801 2°34.515 236 14.5 234.2 10.5
2002-07-01 10:27:21 51°9.663 2°34.207 235.8 14.5 234.3 11.7
2002-07-01 10:28:22 51°9.519 2°33.887 236 14.6 234.7 12.6
2002-07-01 10:29:21 51°9.381 2°33.576 236 14.6 234.6 13.8
2002-07-01 10:30:22 51°9.238 2°33.254 236.8 14.7 235.4 14.6
2002-07-01 10:31:21 51°9.116 2°32.983 235.3 11.4 234.3 15.3
2002-07-01 10:32:21 51°9.025 2°32.776 232 7.3 233.1 15.8
2002-07-01 10:33:22 51°8.991 2°32.647 280.5 4.8 274.2 15.2
2002-07-01 10:34:21 51°9.039 2°32.572 1 4 345.8 12.1
2002-07-01 10:35:21 51°9.086 2°32.607 66 2.8 55 11.2
2002-07-01 10:36:21 51°9.094 2°32.663 94.7 2.1 88.6 11.6
2002-07-01 10:37:22 51°9.087 2°32.712 114.2 1.9 112.7 12.6
2002-07-01 10:38:22 51°9.072 2°32.753 121.5 1.7 122.6 13.9
2002-07-01 10:39:22 51°9.062 2°32.79 105.2 1.5 105.5 15
2002-07-01 10:40:22 51°9.059 2°32.826 93.8 1.3 89.9 15.5
2002-07-01 10:41:22 51°9.061 2°32.855 87.7 1 78.1 15.8
2002-07-01 10:42:22 51°9.067 2°32.88 86.3 0.9 75.7 15.8
2002-07-01 10:43:23 51°9.073 2°32.902 81.5 0.9 64.3 15.8
2002-07-01 10:44:22 51°9.079 2°32.923 79.2 0.9 61.3 15.9
2002-07-01 10:45:22 51°9.101 2°32.955 35.2 2.5 23.2 15.5
2002-07-01 10:46:22 51°9.158 2°32.894 300 6 293.9 12.8
2002-07-01 10:47:22 51°9.145 2°32.766 243.8 3.9 249.2 11.5
2002-07-01 10:48:22 51°9.127 2°32.7 232.7 2.1 246.3 11
2002-07-01 10:49:22 51°9.117 2°32.661 225 1.3 249.8 10.9
2002-07-01 10:50:22 51°9.114 2°32.634 226.3 0.9 268.9 10.6
2002-07-01 10:51:22 51°9.114 2°32.606 233.7 1.2 265.5 10.2
2002-07-01 10:52:22 51°9.096 2°32.565 202.3 2.1 214.4 10.3
2002-07-01 10:53:22 51°9.072 2°32.563 149.2 1 163 10.9
2002-07-01 10:54:22 51°9.061 2°32.576 133.2 0.8 139 11.6
2002-07-01 10:55:22 51°9.051 2°32.591 126.5 0.8 131.2 12
2002-07-01 10:56:22 51°9.042 2°32.606 123.2 0.7 130.6 12.6
2002-07-01 10:57:22 51°9.035 2°32.622 117 0.8 130.7 13.2
2002-07-01 10:58:22 51°9.028 2°32.642 108.5 0.9 113.9 13.9
2002-07-01 10:59:22 51°9.023 2°32.667 101.2 1 102.2 14.5
2002-07-01 11:00:22 51°9.021 2°32.694 91.7 1 87.1 15
2002-07-01 11:01:21 51°9.024 2°32.722 84.3 1.1 77.3 15.3
2002-07-01 11:02:22 51°9.036 2°32.758 58.7 2.1 50.5 15.4
2002-07-01 11:03:22 51°9.068 2°32.776 20.3 2 1.7 14.4
2002-07-01 11:04:21 51°9.096 2°32.763 357.5 1.8 336.9 13
2002-07-01 11:05:21 51°9.12 2°32.74 338.2 1.5 326.4 11.8
2002-07-01 11:06:22 51°9.132 2°32.72 327 0.4 279.3 11.3
2002-07-01 11:07:22 51°9.122 2°32.727 342.7 0.6 161.5 -999
2002-07-01 11:08:22 51°9.117 2°32.727 352.8 0.2 211.7 11.7
2002-07-01 11:09:22 51°9.117 2°32.724 351.3 0.2 297.5 11.7
2002-07-01 11:10:22 51°9.121 2°32.719 336.5 0.4 300.7 11.5
2002-07-01 11:11:22 51°9.123 2°32.71 321.8 0.4 293.9 11.4
2002-07-01 11:12:22 51°9.125 2°32.704 316.8 0.2 298.4 11.2
2002-07-01 11:13:22 51°9.127 2°32.702 316.5 0.1 324.3 11.1
2002-07-01 11:14:22 51°9.128 2°32.702 318.8   203.6 11.1
2002-07-01 11:15:22 51°9.128 2°32.702 320.8 0.1 238.3 11.1
2002-07-01 11:16:22 51°9.132 2°32.698 328.7 0.5 320.8 10.9
2002-07-01 11:17:22 51°9.145 2°32.679 334 1.4 319.5 10.3
2002-07-01 11:18:21 51°9.17 2°32.651 344.5 2.1 331 9.4
2002-07-01 11:19:22 51°9.208 2°32.639 14.5 2.7 2.1 8.8
2002-07-01 11:20:22 51°9.234 2°32.718 101 3.8 97.2 9.2
2002-07-01 11:21:22 51°9.212 2°32.78 131.8 2.2 129.7 9.9
2002-07-01 11:22:22 51°9.189 2°32.806 147.8 1.4 151.1 10.9
2002-07-01 11:23:22 51°9.171 2°32.817 157.8 1 164.8 11.4
2002-07-01 11:24:22 51°9.156 2°32.822 162.7 0.8 168.9 12
2002-07-01 11:25:22 51°9.127 2°32.82 190.7 2.8 193.4 13.1
2002-07-01 11:26:22 51°9.076 2°32.759 224.3 4.5 224.6 14
2002-07-01 11:27:22 51°8.981 2°32.702 190.2 7.9 191.7 16.6
2002-07-01 11:28:22 51°8.812 2°32.735 160.3 11.7 162.1 17.8
2002-07-01 11:29:22 51°8.621 2°32.835 160.7 12.1 162.1 18.5
2002-07-01 11:30:22 51°8.421 2°32.844 183.8 12.2 185.4 16
2002-07-01 11:31:22 51°8.271 2°32.833 187 7.7 188.1 15.8
2002-07-01 11:32:22 51°8.131 2°32.832 180 8.7 180.4 15.9
2002-07-01 11:33:22 51°8.034 2°32.807 166.2 4.6 175.9 15.3
2002-07-01 11:34:22 51°7.996 2°32.872 93.2 3.3 99.2 14.5
2002-07-01 11:35:22 51°8.019 2°32.965 70.7 3.1 67.5 14.5
2002-07-01 11:36:22 51°8.019 2°33.003 92.2 1.4 90.6 14.2
2002-07-01 11:37:21 51°8.021 2°33.036 78.7 1.3 80.7 14
2002-07-01 11:38:22 51°8.036 2°33.068 46.3 1.6 32.5 14.2
2002-07-01 11:39:22 51°8.065 2°33.068 3.2 2 340.4 14.7
2002-07-01 11:40:22 51°8.091 2°33.032 327 1.8 308.1 15.2
2002-07-01 11:41:21 51°8.101 2°32.994 314.8 1.4 286.2 15.4
2002-07-01 11:42:22 51°8.107 2°32.962 308.8 1.1 278.6 15.7
2002-07-01 11:43:22 51°8.104 2°32.952 311.7 0.6 161.3 15.8
2002-07-01 11:44:21 51°8.092 2°32.955 334.2 0.7 180.8 15.5
2002-07-01 11:45:22 51°8.078 2°32.952 349.5 0.8 190.2 15.4
2002-07-01 11:46:22 51°8.066 2°32.945 359.5 0.8 202.7 15.2
2002-07-01 11:47:22 51°8.056 2°32.937 7 0.7 214.6 15.2
2002-07-01 11:48:22 51°8.047 2°32.927 12 0.6 218.7 15.1
2002-07-01 11:49:22 51°8.04 2°32.917 7.2 0.5 219.9 15
2002-07-01 11:50:22 51°8.033 2°32.906 1.8 0.5 230.6 15
2002-07-01 11:51:21 51°8.032 2°32.894 354.5 0.6 289.7 15
2002-07-01 11:52:22 51°8.054 2°32.879 17.8 2.5 357.5 15.4
2002-07-01 11:53:22 51°8.083 2°32.923 71 2.4 65 15.7
2002-07-01 11:54:22 51°8.091 2°32.981 86.2 2.1 84.7 15.5
2002-07-01 11:55:22 51°8.088 2°33.039 98 2 100.7 15.4
2002-07-01 11:56:22 51°8.079 2°33.076 109.5 1.3 119.3 15
2002-07-01 11:57:22 51°8.067 2°33.098 118.3 1 139.4 14.9
2002-07-01 11:58:22 51°8.056 2°33.108 123.8 0.7 160.8 14.6
2002-07-01 11:59:22 51°8.046 2°33.111 126.7 0.6 172.7 14.3
2002-07-01 12:00:22 51°8.039 2°33.111 128.5 0.5 190.2 14.1
2002-07-01 12:01:22 51°8.036 2°33.104 128 0.5 269.7 14.1
2002-07-01 12:02:22 51°8.04 2°33.085 111.5 0.9 293.3 14.4
2002-07-01 12:03:22 51°8.044 2°33.063 96.3 0.8 281.3 14.7
2002-07-01 12:04:22 51°8.048 2°33.066 69.7 1.2 61.3 14.8
2002-07-01 12:05:22 51°8.102 2°33.073 342.5 5.1 331.8 15.4
2002-07-01 12:06:22 51°8.186 2°33.008 355.5 4.8 342.3 16.2
2002-07-01 12:07:22 51°8.245 2°32.971 341.8 3.4 330.2 16.7
2002-07-01 12:08:22 51°8.279 2°32.927 326.7 2.3 315.1 16
2002-07-01 12:09:22 51°8.299 2°32.888 313.8 1.7 305.7 16
2002-07-01 12:10:22 51°8.311 2°32.857 304.7 1.2 299.8 16.1
2002-07-01 12:11:22 51°8.318 2°32.831 296.5 1 289.9 16.3
2002-07-01 12:12:22 51°8.326 2°32.811 296.8 0.9 302.9 16.5
2002-07-01 12:13:22 51°8.334 2°32.796 302 0.7 312.4 16.5
2002-07-01 12:14:22 51°8.341 2°32.782 306.7 0.6 315.4 16.8
2002-07-01 12:15:22 51°8.349 2°32.769 305.3 0.7 315.2 17
2002-07-01 12:16:22 51°8.357 2°32.757 304.5 0.6 318.3 17
2002-07-01 12:17:21 51°8.364 2°32.745 303.7 0.6 311.6 17
2002-07-01 12:18:22 51°8.371 2°32.733 304.7 0.6 310.3 17.2
2002-07-01 12:19:22 51°8.379 2°32.718 305.7 0.8 311.4 17.3
2002-07-01 12:20:22 51°8.387 2°32.7 303 0.8 301.8 17.4
2002-07-01 12:21:22 51°8.395 2°32.685 302.3 0.8 310 17.7
2002-07-01 12:22:22 51°8.403 2°32.667 301.7 1 300.9 17.7
2002-07-01 12:23:22 51°8.412 2°32.633 295.7 1.3 289.4 17.8
2002-07-01 12:24:22 51°8.42 2°32.607 295.3 1.1 298.3 18.2
2002-07-01 12:25:22 51°8.43 2°32.578 307.7 1.3 300.5 18.3
2002-07-01 12:26:22 51°8.44 2°32.551 306.8 1 298.3 18.6
2002-07-01 12:27:22 51°8.447 2°32.527 299.7 0.9 291.2 18.5
2002-07-01 12:28:22 51°8.453 2°32.506 301.8 0.9 297.7 18.7
2002-07-01 12:29:22 51°8.459 2°32.486 303.7 0.8 305 18.5
2002-07-01 12:30:22 51°8.466 2°32.47 307.5 0.8 307.4 18.4
2002-07-01 12:31:22 51°8.473 2°32.454 308.8 0.8 310.4 18.3
2002-07-01 12:32:22 51°8.482 2°32.439 311.7 0.7 309.4 18.1
2002-07-01 12:33:22 51°8.488 2°32.424 310.2 0.7 303.6 18.4
2002-07-01 12:34:22 51°8.496 2°32.408 308.8 0.8 311.1 18.4
2002-07-01 12:35:22 51°8.503 2°32.389 303.8 0.9 300.9 18.6
2002-07-01 12:36:22 51°8.511 2°32.369 305.3 0.9 299.3 18.7
2002-07-01 12:37:22 51°8.519 2°32.35 305.8 0.9 301.3 18.8
2002-07-01 12:38:22 51°8.526 2°32.332 307.7 0.8 310.2 18.7
2002-07-01 12:39:22 51°8.534 2°32.315 309 0.7 314.2 18.4
2002-07-01 12:40:22 51°8.541 2°32.3 313.5 0.7 304.6 18.7
2002-07-01 12:41:22 51°8.548 2°32.285 309.3 0.7 307 18.6
2002-07-01 12:42:22 51°8.555 2°32.27 308.5 0.7 306.9 18.6
2002-07-01 12:43:22 51°8.562 2°32.255 308.2 0.7 308.6 18.7
2002-07-01 12:44:22 51°8.569 2°32.239 308.2 0.7 303.7 18.5
2002-07-01 12:45:22 51°8.576 2°32.225 309.2 0.6 307.4 18.6
2002-07-01 12:46:22 51°8.582 2°32.213 308.8 0.6 316.1 15.8
2002-07-01 12:47:22 51°8.586 2°32.203 309.7 0.3 312.2 18.7
2002-07-01 12:48:22 51°8.588 2°32.201 317.3 0.1 100.1 18.7
2002-07-01 12:49:22 51°8.587 2°32.205 327.8 0.1 95.4 18.4
2002-07-01 12:50:22 51°8.587 2°32.205 331.8 0.1 357.7 18.7
2002-07-01 12:51:22 51°8.587 2°32.204 332 0.1 315.1 18.8
2002-07-01 12:52:22 51°8.588 2°32.202 328.7   24.4 18.7
2002-07-01 12:53:22 51°8.587 2°32.207 324.2 0.2 96.1 17.4
2002-07-01 12:54:22 51°8.586 2°32.211 325.8 0.2 99.2 18.7
2002-07-01 12:55:22 51°8.586 2°32.215 327.7 0.1 84.8 18.8
2002-07-01 12:56:22 51°8.587 2°32.218 325 0.2 39.2 18.8
2002-07-01 12:57:22 51°8.588 2°32.22 325.5 0.1 79.6 18.7
2002-07-01 12:58:22 51°8.589 2°32.224 325 0.2 107.4 18.7
2002-07-01 12:59:22 51°8.589 2°32.229 322.8 0.1 71.1 18.8
2002-07-01 13:00:22 51°8.59 2°32.231 318.3 0.1 37.1 18.7
2002-07-01 13:01:22 51°8.59 2°32.236 316 0.1 72.8 18.9
2002-07-01 13:02:22 51°8.591 2°32.24 313.7 0.2 79.3 18.9
2002-07-01 13:03:22 51°8.59 2°32.244 310.5 0.1 104.6 18.9
2002-07-01 13:04:22 51°8.591 2°32.247 310.7 0.2 61.9 18.9
2002-07-01 13:05:22 51°8.591 2°32.252 308.8 0.2 74.4 19
2002-07-01 13:06:22 51°8.592 2°32.256 309.7 0.2 54.8 18.9
2002-07-01 13:07:22 51°8.593 2°32.262 309.5 0.2 84.3 18.9
2002-07-01 13:08:22 51°8.593 2°32.268 307.2 0.2 94 18.9
2002-07-01 13:09:22 51°8.593 2°32.271 305.8 0.2 61 18.9
2002-07-01 13:10:22 51°8.594 2°32.274 302.2 0.2 34.8 18.9
2002-07-01 13:11:22 51°8.597 2°32.276 300.3 0.2 17.8 19
2002-07-01 13:12:22 51°8.599 2°32.279 298.3 0.2 33.2 19
2002-07-01 13:13:22 51°8.602 2°32.28 293 0.1 8.9 19
2002-07-01 13:14:22 51°8.605 2°32.279 286.7 0.3 342.8 19
2002-07-01 13:15:22 51°8.61 2°32.277 285.5 0.3 348.1 19
2002-07-01 13:16:22 51°8.613 2°32.277 278.7 0.1 8.2 19.1
2002-07-01 13:17:22 51°8.615 2°32.278 266.3 0.2 356.8 19.1
2002-07-01 13:18:22 51°8.618 2°32.274 253.8 0.3 305.7 19.1
2002-07-01 13:19:22 51°8.621 2°32.265 245.2 0.4 299.2 19.1
2002-07-01 13:20:22 51°8.624 2°32.26 234 0.2 307.9 19.2
2002-07-01 13:21:22 51°8.625 2°32.258 221 0.2 337.8 19.2
2002-07-01 13:22:22 51°8.625 2°32.258 200.7 0.1 161 19.2
2002-07-01 13:23:22 51°8.626 2°32.261 183.8 0.1 39.7 19.2
2002-07-01 13:24:22 51°8.623 2°32.265 171.8 0.3 137.4 19.2
2002-07-01 13:25:22 51°8.621 2°32.271 164.3 0.3 137.8 19.1
2002-07-01 13:26:22 51°8.618 2°32.277 165.5 0.2 121.4 19.2
2002-07-01 13:27:22 51°8.617 2°32.281 170 0.2 91.5 19.2
2002-07-01 13:28:22 51°8.619 2°32.283 171 0.1 29.8 19.2
2002-07-01 13:29:22 51°8.618 2°32.287 174.7 0.3 118 19.2
2002-07-01 13:30:22 51°8.615 2°32.292 180.8 0.2 142.1 19.4
2002-07-01 13:31:22 51°8.615 2°32.294 189.2   109.1 19.3
2002-07-01 13:32:22 51°8.614 2°32.295 198.7 0.1 158.2 19.4
2002-07-01 13:33:22 51°8.607 2°32.289 214.8 0.6 217 19.4
2002-07-01 13:34:22 51°8.602 2°32.282 236.3 0.4 256.4 19.4
2002-07-01 13:35:22 51°8.599 2°32.266 242.7 0.8 256.3 19.3
2002-07-01 13:36:22 51°8.597 2°32.246 227.5 0.7 251.6 19.4
2002-07-01 13:37:22 51°8.588 2°32.236 197.3 0.5 179.4 19.4
2002-07-01 13:38:22 51°8.588 2°32.245 170.3 0.5 48.1 19.5
2002-07-01 13:39:22 51°8.596 2°32.256 149.2 0.7 40.1 19.4
2002-07-01 13:40:22 51°8.605 2°32.268 124.7 0.7 45.2 19.5
2002-07-01 13:41:22 51°8.615 2°32.28 112 0.7 40.7 19.5
2002-07-01 13:42:22 51°8.621 2°32.304 106.2 2.1 89.2 19.5
2002-07-01 13:43:22 51°8.632 2°32.473 78.2 10.7 76.5 19.4
2002-07-01 13:44:22 51°8.694 2°32.812 76.7 14 72.7 19.5
2002-07-01 13:45:22 51°8.733 2°33.171 86.2 13.5 82.6 18.8
2002-07-01 13:46:22 51°8.765 2°33.534 85.7 14.3 82.1 17.5
2002-07-01 13:47:22 51°8.79 2°33.905 85.7 14.1 82.3 16.4
2002-07-01 13:48:22 51°8.82 2°34.277 87.7 14.1 84.1 17
2002-07-01 13:49:22 51°8.853 2°34.647 84.8 13.6 81 17.4
2002-07-01 13:50:22 51°8.88 2°35.016 87 14.2 83.2 17.1
2002-07-01 13:51:22 51°8.916 2°35.383 83 14 80.3 16.6
2002-07-01 13:52:22 51°8.945 2°35.747 86.7 14.1 82.8 15
2002-07-01 13:53:22 51°8.979 2°36.121 83 14.1 78.6 13.2
2002-07-01 13:54:22 51°9.013 2°36.493 83.7 14.2 80.3 11.4
2002-07-01 13:55:22 51°9.049 2°36.865 85 14.2 81.1 10.7
2002-07-01 13:56:22 51°9.067 2°37.141 82.7 7.5 79.3 10.9
2002-07-01 13:57:22 51°9.09 2°37.272 90.2 3.4 81.4 11
2002-07-01 13:58:22 51°9.092 2°37.321 118.8 1.4 83.7 11
2002-07-01 13:59:22 51°9.094 2°37.354 128 1.2 82.3 11
2002-07-01 14:00:22 51°9.103 2°37.374 128.8 1 17.7 11
2002-07-01 14:01:22 51°9.119 2°37.374 101.2 0.9 356.2 -999
2002-07-01 14:02:22 51°9.132 2°37.368 83 1 305.3 11.3
2002-07-01 14:03:22 51°9.13 2°37.338 59.8 1 256.3 -999
2002-07-01 14:04:22 51°9.125 2°37.322 48.5 0.4 237.8 11.4
2002-07-01 14:05:21 51°9.124 2°37.318 43.3 0.1 128.7 11.4
2002-07-01 14:06:22 51°9.125 2°37.323 41.7 0.4 61.4 11.4
2002-07-01 14:07:22 51°9.13 2°37.334 48.2 0.6 51.4 11.4
2002-07-01 14:08:23 51°9.135 2°37.345 56.7 0.5 36.9 11.5
2002-07-01 14:09:23 51°9.142 2°37.353 60.7 0.5 26.3 11.5
2002-07-01 14:10:23 51°9.146 2°37.349 59 0.5 282.5 11.6
2002-07-01 14:11:23 51°9.145 2°37.342 48.7 0.1 292.4 11.7
2002-07-01 14:12:23 51°9.146 2°37.346 44.8 0.1 88.9 11.7
2002-07-01 14:13:23 51°9.143 2°37.346 43.7 0.3 183.6 -999
2002-07-01 14:14:23 51°9.139 2°37.346 45.3 0.1 170.6 11.7
2002-07-01 14:15:22 51°9.139 2°37.352 47.3 0.4 66.6 11.6
2002-07-01 14:16:22 51°9.144 2°37.365 53.5 0.8 52 11.7
2002-07-01 14:17:22 51°9.151 2°37.375 59 0.4 17.8 11.7
2002-07-01 14:18:22 51°9.158 2°37.38 55.5 0.5 24.9 11.8
2002-07-01 14:19:22 51°9.16 2°37.38 51.8 0.5 232.8 11.8
2002-07-01 14:20:23 51°9.145 2°37.362 42.7 1.5 211.5 -999
2002-07-01 14:21:23 51°9.117 2°37.338 39.5 2 205.6 -999
2002-07-01 14:22:22 51°9.12 2°37.374 79.2 4.3 72 11.6
2002-07-01 14:23:22 51°9.079 2°37.482 170.8 5.5 158.3 11.1
2002-07-01 14:24:22 51°9.023 2°37.43 245.7 2.8 239.5 11.1
2002-07-01 14:25:23 51°9.024 2°37.395 271.5 1.1 301.2 11.1
2002-07-01 14:26:22 51°9.035 2°37.377 275 1 323.3 11.3
2002-07-01 14:27:22 51°9.05 2°37.363 292.2 1.3 329.4 11.3
2002-07-01 14:28:23 51°9.076 2°37.349 317.7 1.8 350.6 11.4
2002-07-01 14:29:23 51°9.11 2°37.349 330 2.1 2.2 11.7
2002-07-01 14:30:22 51°9.145 2°37.354 339.2 2.3 8.5 11.9
2002-07-01 14:31:22 51°9.185 2°37.367 350.8 2.5 13 12.4
2002-07-01 14:32:23 51°9.228 2°37.392 13.3 2.8 27.2 12.6
2002-07-01 14:33:23 51°9.266 2°37.438 36.5 2.9 44.1 12.8
2002-07-01 14:34:22 51°9.293 2°37.502 72.7 2.9 64.6 12.8
2002-07-01 14:35:23 51°9.307 2°37.577 94 3.2 77.9 12.8
2002-07-01 14:36:22 51°9.344 2°37.695 61.3 6.9 59 12.8
2002-07-01 14:37:22 51°9.429 2°37.938 64.2 13.8 61.2 12.8
2002-07-01 14:38:23 51°9.553 2°38.282 63 15.2 59.8 12.7
2002-07-01 14:39:23 51°9.676 2°38.632 63.8 15.2 60.1 12.9
2002-07-01 14:40:23 51°9.802 2°38.979 63 15.1 59.3 13.1
2002-07-01 14:41:23 51°9.925 2°39.329 64 14.9 60 13.2
2002-07-01 14:42:23 51°10.041 2°39.689 68.2 15.3 64 13.3
2002-07-01 14:43:23 51°10.146 2°40.06 69.3 15.6 66 13.3
2002-07-01 14:44:23 51°10.253 2°40.427 68.2 15.3 65.1 13.2
2002-07-01 14:45:22 51°10.358 2°40.782 67.2 15.2 63.4 13.5
2002-07-01 14:46:22 51°10.466 2°41.144 70.7 15 66.4 13.7
2002-07-01 14:47:22 51°10.572 2°41.513 71.8 15.3 67.1 13.7
2002-07-01 14:48:22 51°10.67 2°41.884 71.5 15.2 67.2 13.7
2002-07-01 14:49:22 51°10.775 2°42.251 68.7 15.2 64.3 13.7
2002-07-01 14:50:23 51°10.881 2°42.627 71 15.6 67.8 14
2002-07-01 14:51:23 51°10.977 2°43.001 71.8 15.7 68.1 14.1
2002-07-01 14:52:23 51°11.071 2°43.38 74.8 15.4 70.7 14.1
2002-07-01 14:53:23 51°11.166 2°43.755 72 15.3 67.1 14.1
2002-07-01 14:54:23 51°11.259 2°44.134 77 15.1 71.5 14.2
2002-07-01 14:55:23 51°11.356 2°44.506 69.3 15.6 66.4 14.2
2002-07-01 14:56:22 51°11.448 2°44.874 72.2 15.2 67.6 14.4
2002-07-01 14:57:22 51°11.548 2°45.248 72.5 15.6 67.8 14.6
2002-07-01 14:58:22 51°11.649 2°45.619 68.7 15.4 65.4 14.6
2002-07-01 14:59:22 51°11.749 2°45.99 70.5 15.9 66.8 14.5
2002-07-01 15:00:22 51°11.842 2°46.369 76 15.2 70.8 14.6
2002-07-01 15:01:23 51°11.944 2°46.75 72 15.2 66.9 14.6
2002-07-01 15:02:23 51°12.046 2°47.126 71.8 15.1 66.3 14.5
2002-07-01 15:03:23 51°12.147 2°47.503 71.5 15.7 66.5 14.3
2002-07-01 15:04:23 51°12.247 2°47.88 72.5 15.7 68.8 14.3
2002-07-01 15:05:23 51°12.348 2°48.257 70.5 15.6 66.1 14
2002-07-01 15:06:23 51°12.451 2°48.631 72.7 15.3 67.2 13.8
2002-07-01 15:07:23 51°12.558 2°49.005 70 15.8 65.1 13.7
2002-07-01 15:08:23 51°12.653 2°49.388 72 15.8 67.3 13.3
2002-07-01 15:09:23 51°12.752 2°49.765 76.2 15.4 70.4 13
2002-07-01 15:10:23 51°12.848 2°50.144 74.7 15.3 69.4 12.6
2002-07-01 15:11:23 51°12.951 2°50.518 70 15.6 65 12.5
2002-07-01 15:12:23 51°13.057 2°50.894 70.7 15.7 65.4 12.3
2002-07-01 15:13:23 51°13.162 2°51.272 66.2 15.8 61.9 11.9
2002-07-01 15:14:23 51°13.282 2°51.637 66 15.6 61.4 11.8
2002-07-01 15:15:23 51°13.406 2°51.998 64.5 15.5 60.1 11.8
2002-07-01 15:16:22 51°13.529 2°52.349 67.2 15.8 62.2 11.5
2002-07-01 15:17:22 51°13.648 2°52.713 67.8 15.5 62.8 11.6
2002-07-01 15:18:22 51°13.78 2°53.066 60.7 15.5 56.1 11.4
2002-07-01 15:19:22 51°13.932 2°53.402 56.2 15.7 51.9 11.2
2002-07-01 15:20:23 51°14.107 2°53.721 50.7 15.8 47 11.1
2002-07-01 15:21:22 51°14.271 2°54.031 53.5 15.3 49.4 11.1
2002-07-01 15:22:23 51°14.363 2°54.257 85.2 6.3 70.4 11.6
2002-07-01 15:23:23 51°14.388 2°54.327 75.7 2.3 47.9 11.7
2002-07-01 15:24:24 51°14.408 2°54.345 73.2 1.3 289.7 -999
2002-07-01 15:25:23 51°14.416 2°54.333 63.5 0.7 14.6 11.9
2002-07-01 15:26:23 51°14.434 2°54.352 65.2 1.9 40.8 11.9
2002-07-01 15:27:23 51°14.456 2°54.565 103.5 11.4 93.4 12.1
2002-07-01 15:28:23 51°14.401 2°54.878 118.3 12.7 109.4 12
2002-07-01 15:29:23 51°14.312 2°55.161 128.2 10.9 125.5 12.3
2002-07-01 15:30:23 51°14.22 2°55.327 144.7 6.8 140.8 12.8
2002-07-01 15:31:23 51°14.142 2°55.399 155.7 4.7 150.6 12.8
2002-07-01 15:32:23 51°14.08 2°55.449 159.8 4 155.1 12.6
2002-07-01 15:33:23 51°14.02 2°55.493 158.5 4 154.8 12.7
2002-07-01 15:34:23 51°13.956 2°55.544 158.5 4.4 153.4 12.7
2002-07-01 15:35:23 51°13.887 2°55.597 158.8 5 155 12
2002-07-01 15:36:23 51°13.809 2°55.662 154.2 5.4 150 12.6
2002-07-01 15:37:23 51°13.743 2°55.75 134.3 5.1 130.8 11.7
2002-07-01 15:38:23 51°13.695 2°55.849 130.3 4.3 125.9 11.9
2002-07-01 15:39:23 51°13.658 2°55.934 131 3.5 124.8 10.5
2002-07-01 15:40:23 51°13.629 2°56.002 125.3 2.9 120.6 12
2002-07-01 15:41:23 51°13.609 2°56.063 128.2 2.4 118 11
2002-07-01 15:42:23 51°13.599 2°56.09 131.7 0.6 126.8 9.3
2002-07-01 15:43:23 51°13.597 2°56.096 129.3 0.2 75.3 8.9
2002-07-01 15:44:22 51°13.597 2°56.097 127.3   106.9 8.6
2002-07-01 15:45:22 51°13.597 2°56.097 129   217 8.4